createdAt,value
2022-10-13T00:03:03.375Z,87.90
2022-10-13T00:06:45.069Z,87.90
2022-10-13T00:10:28.054Z,87.80
2022-10-13T00:14:09.739Z,88.00
2022-10-13T00:17:51.640Z,87.80
2022-10-13T00:21:33.503Z,87.80
2022-10-13T00:25:15.257Z,88.60
2022-10-13T00:28:57.056Z,88.00
2022-10-13T00:32:39.113Z,87.90
2022-10-13T00:36:21.565Z,88.20
2022-10-13T00:40:04.264Z,88.10
2022-10-13T00:44:27.634Z,88.20
2022-10-13T00:48:09.311Z,88.50
2022-10-13T00:51:51.210Z,87.90
2022-10-13T00:55:34.239Z,87.90
2022-10-13T00:59:23.204Z,87.80
2022-10-13T01:03:05.119Z,87.70
2022-10-13T01:06:46.838Z,88.00
2022-10-13T01:11:08.911Z,88.00
2022-10-13T01:15:19.890Z,88.30
2022-10-13T01:19:12.805Z,88.60
2022-10-13T01:23:40.250Z,87.70
2022-10-13T01:27:32.283Z,88.00
2022-10-13T01:31:52.919Z,88.00
2022-10-13T01:36:09.855Z,87.70
2022-10-13T01:39:58.074Z,87.70
2022-10-13T01:43:43.204Z,87.60
2022-10-13T01:47:24.896Z,87.40
2022-10-13T01:51:07.581Z,87.30
2022-10-13T01:54:52.627Z,87.30
2022-10-13T01:58:34.594Z,87.30
2022-10-13T02:02:48.760Z,87.40
2022-10-13T02:06:53.212Z,87.90
2022-10-13T02:10:51.987Z,88.10
2022-10-13T02:14:34.711Z,87.50
2022-10-13T02:18:18.880Z,87.50
2022-10-13T02:22:00.665Z,87.70
2022-10-13T02:25:42.452Z,87.60
2022-10-13T02:29:24.206Z,87.50
2022-10-13T02:33:06.111Z,87.40
2022-10-13T02:36:48.111Z,87.40
2022-10-13T02:40:29.975Z,87.50
2022-10-13T02:44:11.756Z,87.50
2022-10-13T02:47:53.455Z,87.50
2022-10-13T02:51:39.892Z,87.20
2022-10-13T02:55:22.190Z,87.00
2022-10-13T02:59:04.005Z,86.90
2022-10-13T03:02:46.017Z,87.10
2022-10-13T03:06:27.743Z,87.00
2022-10-13T03:10:09.724Z,87.00
2022-10-13T03:13:51.449Z,87.00
2022-10-13T03:17:33.114Z,87.00
2022-10-13T03:21:15.195Z,86.90
2022-10-13T03:24:56.999Z,87.00
2022-10-13T03:28:38.702Z,87.10
2022-10-13T03:32:21.045Z,87.10
2022-10-13T03:36:04.697Z,87.30
2022-10-13T03:39:46.437Z,86.90
2022-10-13T03:43:28.298Z,86.70
2022-10-13T03:47:09.969Z,87.30
2022-10-13T03:50:52.030Z,87.20
2022-10-13T03:54:33.719Z,87.20
2022-10-13T03:58:15.447Z,87.10
2022-10-13T04:01:57.332Z,87.10
2022-10-13T04:05:39.056Z,87.00
2022-10-13T04:09:20.844Z,87.20
2022-10-13T04:13:02.779Z,87.10
2022-10-13T04:16:44.458Z,87.20
2022-10-13T04:20:26.259Z,87.00
2022-10-13T04:24:08.175Z,87.90
2022-10-13T04:27:50.372Z,86.90
2022-10-13T04:31:32.463Z,86.90
2022-10-13T04:35:14.206Z,87.10
2022-10-13T04:38:55.981Z,86.90
2022-10-13T04:42:37.690Z,86.60
2022-10-13T04:46:21.174Z,86.50
2022-10-13T04:50:02.941Z,86.70
2022-10-13T04:53:44.677Z,86.70
2022-10-13T04:57:26.407Z,86.80
2022-10-13T05:01:11.325Z,86.80
2022-10-13T05:04:53.019Z,86.60
2022-10-13T05:08:34.710Z,86.70
2022-10-13T05:12:16.818Z,86.60
2022-10-13T05:15:58.685Z,86.80
2022-10-13T05:19:40.357Z,86.90
2022-10-13T05:23:22.290Z,87.40
2022-10-13T05:27:12.234Z,86.90
2022-10-13T05:30:53.998Z,87.10
2022-10-13T05:34:35.710Z,87.00
2022-10-13T05:38:17.374Z,86.60
2022-10-13T05:42:00.313Z,87.40
2022-10-13T05:45:41.995Z,86.70
2022-10-13T05:49:23.707Z,86.60
2022-10-13T05:53:05.758Z,86.50
2022-10-13T05:57:14.093Z,86.30
2022-10-13T06:00:56.063Z,87.10
2022-10-13T06:04:40.011Z,85.80
2022-10-13T06:08:21.687Z,86.00
2022-10-13T06:12:04.754Z,86.40
2022-10-13T06:15:46.493Z,85.90
2022-10-13T06:19:28.210Z,86.00
2022-10-13T06:23:10.035Z,85.90
2022-10-13T06:26:51.696Z,85.70
2022-10-13T06:30:33.534Z,85.90
2022-10-13T06:34:15.315Z,86.20
2022-10-13T06:37:57.506Z,86.30
2022-10-13T06:41:40.459Z,86.30
2022-10-13T06:45:22.273Z,86.10
2022-10-13T06:49:03.955Z,86.20
2022-10-13T06:52:45.886Z,86.70
2022-10-13T06:56:28.935Z,86.80
2022-10-13T07:00:11.571Z,87.00
2022-10-13T07:03:53.252Z,87.10
2022-10-13T07:07:34.979Z,87.10
2022-10-13T07:11:18.559Z,86.70
2022-10-13T07:15:00.246Z,86.60
2022-10-13T07:18:41.971Z,86.30
2022-10-13T07:22:23.755Z,86.30
2022-10-13T07:26:09.778Z,86.40
2022-10-13T07:29:51.450Z,86.50
2022-10-13T07:33:33.158Z,86.60
2022-10-13T07:37:17.776Z,86.50
2022-10-13T07:41:04.507Z,86.60
2022-10-13T07:44:46.262Z,86.50
2022-10-13T07:48:28.481Z,86.60
2022-10-13T07:52:10.578Z,86.80
2022-10-13T07:55:52.298Z,86.80
2022-10-13T07:59:34.136Z,86.10
2022-10-13T08:03:15.846Z,86.10
2022-10-13T08:06:58.365Z,86.30
2022-10-13T08:10:40.077Z,86.40
2022-10-13T08:14:21.778Z,85.40
2022-10-13T08:18:03.510Z,85.30
2022-10-13T08:22:01.813Z,85.10
2022-10-13T08:25:44.022Z,84.60
2022-10-13T08:29:25.851Z,85.00
2022-10-13T08:33:07.771Z,85.20
2022-10-13T08:36:53.067Z,84.80
2022-10-13T08:40:35.163Z,83.90
2022-10-13T08:48:37.371Z,83.50
2022-10-13T08:52:24.574Z,84.00
2022-10-13T08:56:17.658Z,83.70
2022-10-13T08:59:59.347Z,83.90
2022-10-13T09:03:45.550Z,83.60
2022-10-13T09:07:28.832Z,83.70
2022-10-13T09:11:12.323Z,83.70
2022-10-13T09:15:05.114Z,83.40
2022-10-13T09:18:46.819Z,83.20
2022-10-13T09:22:34.075Z,83.20
2022-10-13T09:26:23.712Z,83.20
2022-10-13T09:30:26.369Z,83.10
2022-10-13T09:34:18.816Z,82.60
2022-10-13T09:38:20.457Z,81.70
2022-10-13T09:42:29.502Z,81.50
2022-10-13T09:46:31.486Z,81.40
2022-10-13T09:50:21.311Z,80.30
2022-10-13T09:54:03.512Z,80.10
2022-10-13T09:57:48.837Z,80.20
2022-10-13T10:01:34.326Z,81.10
2022-10-13T10:05:24.587Z,80.30
2022-10-13T10:09:35.146Z,80.10
2022-10-13T10:13:17.038Z,80.50
2022-10-13T10:17:20.854Z,81.60
2022-10-13T10:21:03.028Z,80.50
2022-10-13T10:24:56.005Z,81.50
2022-10-13T10:28:46.839Z,80.00
2022-10-13T10:32:38.658Z,79.20
2022-10-13T10:36:23.680Z,80.30
2022-10-13T10:40:16.745Z,80.20
2022-10-13T10:44:03.072Z,79.60
2022-10-13T10:47:47.389Z,78.60
2022-10-13T10:51:34.024Z,79.60
2022-10-13T10:55:35.891Z,79.00
2022-10-13T10:59:40.204Z,77.70
2022-10-13T11:03:32.243Z,78.30
2022-10-13T11:07:23.266Z,78.30
2022-10-13T11:11:37.541Z,77.90
2022-10-13T11:15:27.498Z,77.80
2022-10-13T11:19:28.627Z,77.20
2022-10-13T11:23:13.404Z,77.80
2022-10-13T11:26:55.412Z,77.40
2022-10-13T11:30:47.413Z,77.60
2022-10-13T11:34:30.966Z,76.60
2022-10-13T11:38:27.125Z,76.90
2022-10-13T11:42:15.062Z,74.70
2022-10-13T11:46:23.338Z,74.90
2022-10-13T11:50:26.187Z,74.40
2022-10-13T11:54:13.650Z,75.90
2022-10-13T11:58:09.318Z,75.90
2022-10-13T12:02:18.877Z,75.80
2022-10-13T12:06:05.888Z,74.90
2022-10-13T12:09:52.818Z,74.10
2022-10-13T12:13:34.791Z,73.60
2022-10-13T12:17:24.192Z,74.10
2022-10-13T12:21:24.818Z,72.90
2022-10-13T12:25:07.142Z,73.00
2022-10-13T12:28:50.496Z,72.70
2022-10-13T12:32:34.253Z,73.60
2022-10-13T12:36:19.317Z,73.10
2022-10-13T12:40:01.031Z,75.40
2022-10-13T12:43:42.701Z,74.30
2022-10-13T12:47:47.281Z,74.10
2022-10-13T12:51:29.289Z,74.10
2022-10-13T12:55:17.786Z,74.80
2022-10-13T12:58:59.459Z,73.30
2022-10-13T13:02:41.377Z,73.70
2022-10-13T13:06:29.500Z,74.40
2022-10-13T13:10:16.733Z,74.60
2022-10-13T13:14:36.594Z,73.50
2022-10-13T13:18:27.134Z,73.90
2022-10-13T13:22:09.150Z,73.90
2022-10-13T13:26:06.625Z,73.60
2022-10-13T13:29:48.407Z,73.20
2022-10-13T13:33:30.235Z,74.10
2022-10-13T13:37:47.839Z,73.80
2022-10-13T13:41:31.238Z,74.00
2022-10-13T13:45:14.047Z,74.40
2022-10-13T13:48:55.771Z,74.20
2022-10-13T13:52:38.494Z,74.50
2022-10-13T13:56:20.359Z,74.40
2022-10-13T14:00:02.197Z,75.20
2022-10-13T14:03:44.104Z,74.50
2022-10-13T14:07:25.959Z,74.20
2022-10-13T14:11:07.951Z,73.60
2022-10-13T14:14:49.614Z,74.20
2022-10-13T14:18:31.491Z,74.50
2022-10-13T14:22:13.176Z,74.10
2022-10-13T14:25:54.903Z,72.90
2022-10-13T14:29:36.939Z,73.90
2022-10-13T14:33:19.680Z,72.60
2022-10-13T14:37:01.425Z,72.90
2022-10-13T14:40:43.240Z,73.60
2022-10-13T14:44:24.901Z,73.30
2022-10-13T14:48:06.581Z,74.00
2022-10-13T14:51:48.359Z,75.00
2022-10-13T14:55:31.634Z,73.50
2022-10-13T14:59:13.345Z,73.10
2022-10-13T15:02:55.240Z,72.70
2022-10-13T15:06:39.355Z,73.20
2022-10-13T15:10:21.526Z,73.20
2022-10-13T15:14:03.265Z,73.10
2022-10-13T15:17:44.951Z,71.90
2022-10-13T15:21:26.901Z,72.60
2022-10-13T15:25:10.347Z,72.10
2022-10-13T15:28:52.761Z,71.20
2022-10-13T15:32:34.583Z,70.40
2022-10-13T15:36:16.310Z,70.00
2022-10-13T15:39:58.029Z,70.60
2022-10-13T15:43:39.736Z,71.00
2022-10-13T15:47:21.617Z,70.50
2022-10-13T15:51:09.476Z,69.80
2022-10-13T15:54:51.546Z,70.30
2022-10-13T15:58:35.158Z,70.20
2022-10-13T16:02:17.049Z,69.30
2022-10-13T16:05:58.719Z,71.70
2022-10-13T16:09:40.410Z,68.60
2022-10-13T16:13:22.393Z,68.70
2022-10-13T16:17:04.138Z,69.30
2022-10-13T16:20:45.965Z,69.20
2022-10-13T16:24:28.958Z,69.50
2022-10-13T16:28:10.732Z,69.30
2022-10-13T16:31:52.601Z,69.10
2022-10-13T16:35:36.887Z,69.40
2022-10-13T16:39:18.619Z,70.10
2022-10-13T16:43:00.525Z,70.00
2022-10-13T16:46:43.011Z,70.80
2022-10-13T16:50:25.093Z,71.10
2022-10-13T16:54:06.766Z,71.20
2022-10-13T16:57:48.439Z,71.70
2022-10-13T17:01:30.683Z,72.00
2022-10-13T17:05:12.370Z,72.40
2022-10-13T17:08:54.402Z,72.80
2022-10-13T17:12:36.303Z,73.50
2022-10-13T17:16:18.383Z,73.60
2022-10-13T17:20:00.081Z,73.70
2022-10-13T17:23:47.385Z,74.30
2022-10-13T17:27:30.231Z,74.30
2022-10-13T17:31:16.669Z,74.70
2022-10-13T17:34:58.337Z,75.00
2022-10-13T17:38:40.123Z,75.30
2022-10-13T17:42:22.071Z,75.70
2022-10-13T17:50:17.231Z,76.40
2022-10-13T17:53:59.563Z,76.80
2022-10-13T17:57:41.312Z,77.20
2022-10-13T18:01:25.831Z,77.60
2022-10-13T18:05:07.834Z,78.00
2022-10-13T18:08:52.675Z,78.10
2022-10-13T18:12:34.542Z,78.20
2022-10-13T18:16:25.919Z,78.30
2022-10-13T18:20:08.209Z,78.60
2022-10-13T18:23:49.990Z,78.70
2022-10-13T18:27:31.658Z,79.00
2022-10-13T18:31:15.924Z,79.10
2022-10-13T18:34:57.645Z,79.50
2022-10-13T18:38:39.302Z,79.40
2022-10-13T18:42:21.201Z,79.50
2022-10-13T18:46:02.981Z,79.60
2022-10-13T18:49:44.650Z,79.80
2022-10-13T18:53:26.562Z,80.00
2022-10-13T18:57:08.241Z,80.20
2022-10-13T19:00:50.446Z,80.30
2022-10-13T19:04:32.160Z,80.60
2022-10-13T19:08:13.833Z,80.70
2022-10-13T19:11:56.941Z,80.70
2022-10-13T19:15:39.763Z,80.90
2022-10-13T19:19:21.478Z,81.10
2022-10-13T19:23:03.625Z,81.10
2022-10-13T19:26:45.306Z,81.30
2022-10-13T19:30:27.160Z,81.30
2022-10-13T19:34:09.566Z,81.40
2022-10-13T19:37:51.229Z,81.70
2022-10-13T19:41:33.250Z,81.70
2022-10-13T19:45:14.953Z,81.80
2022-10-13T19:48:56.617Z,81.80
2022-10-13T19:52:38.417Z,81.90
2022-10-13T19:56:25.733Z,81.90
2022-10-13T20:00:08.299Z,82.00
2022-10-13T20:03:50.161Z,81.80
2022-10-13T20:07:31.859Z,81.70
2022-10-13T20:11:22.198Z,81.60
2022-10-13T20:15:05.602Z,82.00
2022-10-13T20:18:51.708Z,81.80
2022-10-13T20:22:34.678Z,82.20
2022-10-13T20:26:16.446Z,82.00
2022-10-13T20:29:58.115Z,82.40
2022-10-13T20:33:39.972Z,81.80
2022-10-13T20:37:21.831Z,81.90
2022-10-13T20:41:08.572Z,82.00
2022-10-13T20:44:50.272Z,82.20
2022-10-13T20:48:51.026Z,82.20
2022-10-13T20:52:35.266Z,82.30
2022-10-13T20:56:21.612Z,82.50
2022-10-13T21:00:04.803Z,82.90
2022-10-13T21:03:46.654Z,82.90
2022-10-13T21:07:28.526Z,83.00
2022-10-13T21:11:11.615Z,83.20
2022-10-13T21:14:53.451Z,83.30
2022-10-13T21:18:35.220Z,83.20
2022-10-13T21:22:16.942Z,83.20
2022-10-13T21:26:01.538Z,83.80
2022-10-13T21:29:43.193Z,83.40
2022-10-13T21:33:25.028Z,83.30
2022-10-13T21:37:06.685Z,83.40
2022-10-13T21:40:53.675Z,83.50
2022-10-13T21:44:35.643Z,83.40
2022-10-13T21:48:17.308Z,83.30
2022-10-13T21:51:59.481Z,83.40
2022-10-13T21:55:42.042Z,83.50
2022-10-13T21:59:23.721Z,82.90
2022-10-13T22:03:24.067Z,82.90
2022-10-13T22:07:05.875Z,83.10
2022-10-13T22:10:47.755Z,82.70
2022-10-13T22:14:29.431Z,82.90
2022-10-13T22:18:11.099Z,82.90
2022-10-13T22:21:54.024Z,83.00
2022-10-13T22:25:35.696Z,83.00
2022-10-13T22:29:19.414Z,83.00
2022-10-13T22:33:02.187Z,83.00
2022-10-13T22:36:45.189Z,82.30
2022-10-13T22:40:27.485Z,82.80
2022-10-13T22:44:09.174Z,82.80
2022-10-13T22:47:51.270Z,83.00
2022-10-13T22:51:34.180Z,83.10
2022-10-13T22:55:15.914Z,83.20
2022-10-13T22:59:02.094Z,83.10
2022-10-13T23:02:43.981Z,83.50
2022-10-13T23:06:31.346Z,83.60
2022-10-13T23:10:13.184Z,83.70
2022-10-13T23:13:54.990Z,83.50
2022-10-13T23:17:36.719Z,83.60
2022-10-13T23:21:19.595Z,83.70
2022-10-13T23:25:01.261Z,84.10
2022-10-13T23:28:43.216Z,84.00
2022-10-13T23:32:25.192Z,84.20
2022-10-13T23:36:07.583Z,84.40
2022-10-13T23:39:49.254Z,84.40
2022-10-13T23:43:32.070Z,84.60
2022-10-13T23:47:13.730Z,84.90
2022-10-13T23:50:55.829Z,84.90
2022-10-13T23:54:37.490Z,84.90
2022-10-13T23:58:19.137Z,84.80
